createdAt,value
2017-07-10T00:00:28.899Z,0
2017-07-10T00:01:09.409Z,0
2017-07-10T00:01:49.952Z,0
2017-07-10T00:02:30.468Z,0
2017-07-10T00:03:10.987Z,0
2017-07-10T00:03:51.490Z,0
2017-07-10T00:04:31.986Z,0
2017-07-10T00:05:12.529Z,0
2017-07-10T00:05:53.048Z,0
2017-07-10T00:06:33.596Z,0
2017-07-10T00:07:14.156Z,0
2017-07-10T00:07:54.597Z,0
2017-07-10T00:08:35.116Z,0
2017-07-10T00:09:15.620Z,0
2017-07-10T00:09:56.124Z,0
2017-07-10T00:10:36.659Z,0
2017-07-10T00:11:17.159Z,0
2017-07-10T00:11:57.874Z,0
2017-07-10T00:12:38.628Z,0
2017-07-10T00:13:19.148Z,0
2017-07-10T00:13:59.640Z,0
2017-07-10T00:14:40.274Z,0
2017-07-10T00:15:20.878Z,0
2017-07-10T00:16:02.550Z,0
2017-07-10T00:16:43.282Z,0
2017-07-10T00:17:24.825Z,0
2017-07-10T00:18:07.915Z,0
2017-07-10T00:18:50.515Z,0
2017-07-10T00:19:34.549Z,0
2017-07-10T00:20:18.773Z,0
2017-07-10T00:21:01.967Z,0
2017-07-10T00:21:42.848Z,0
2017-07-10T00:22:23.432Z,0
2017-07-10T00:23:03.887Z,0
2017-07-10T00:23:44.467Z,0
2017-07-10T00:24:25.073Z,0
2017-07-10T00:25:05.555Z,0
2017-07-10T00:25:46.063Z,0
2017-07-10T00:26:26.590Z,0
2017-07-10T00:27:07.089Z,0
2017-07-10T00:27:47.607Z,0
2017-07-10T00:28:28.139Z,0
2017-07-10T00:29:08.774Z,0
2017-07-10T00:29:49.260Z,0
2017-07-10T00:30:29.780Z,0
2017-07-10T00:31:10.313Z,0
2017-07-10T00:31:50.853Z,0
2017-07-10T00:32:31.358Z,0
2017-07-10T00:33:11.829Z,0
2017-07-10T00:33:52.383Z,0
2017-07-10T00:34:32.911Z,0
2017-07-10T00:35:13.450Z,0
2017-07-10T00:35:54.013Z,0
2017-07-10T00:36:34.554Z,0
2017-07-10T00:37:15.097Z,0
2017-07-10T00:37:55.642Z,0
2017-07-10T00:38:36.191Z,0
2017-07-10T00:39:16.720Z,0
2017-07-10T00:39:57.300Z,0
2017-07-10T00:40:37.757Z,0
2017-07-10T00:41:18.296Z,0
2017-07-10T00:41:58.806Z,0
2017-07-10T00:42:39.305Z,0
2017-07-10T00:43:21.552Z,0
2017-07-10T00:44:03.112Z,0
2017-07-10T00:44:43.602Z,0
2017-07-10T00:45:24.154Z,0
2017-07-10T00:46:04.676Z,0
2017-07-10T00:46:45.164Z,0
2017-07-10T00:47:25.671Z,0
2017-07-10T00:48:06.170Z,0
2017-07-10T00:48:46.675Z,0
2017-07-10T00:49:27.163Z,0
2017-07-10T00:50:07.682Z,0
2017-07-10T00:50:48.165Z,0
2017-07-10T00:51:28.710Z,0
2017-07-10T00:52:09.227Z,0
2017-07-10T00:52:49.738Z,0
2017-07-10T00:53:30.291Z,0
2017-07-10T00:54:11.001Z,0
2017-07-10T00:54:52.350Z,0
2017-07-10T00:55:32.894Z,0
2017-07-10T00:56:13.378Z,0
2017-07-10T00:56:54.022Z,0
2017-07-10T00:57:34.510Z,0
2017-07-10T00:58:15.008Z,0
2017-07-10T00:58:55.578Z,0
2017-07-10T00:59:36.241Z,0
2017-07-10T01:00:16.774Z,0
2017-07-10T01:00:57.305Z,0
2017-07-10T01:01:37.813Z,0
2017-07-10T01:02:18.390Z,0
2017-07-10T01:02:59.000Z,0
2017-07-10T01:03:39.518Z,0
2017-07-10T01:04:20.006Z,0
2017-07-10T01:05:00.533Z,0
2017-07-10T01:05:41.059Z,0
2017-07-10T01:06:21.570Z,0
2017-07-10T01:07:02.082Z,0
2017-07-10T01:07:42.598Z,0
2017-07-10T01:08:23.113Z,0
2017-07-10T01:09:03.649Z,0
2017-07-10T01:09:44.185Z,0
2017-07-10T01:10:24.715Z,0
2017-07-10T01:11:05.258Z,0
2017-07-10T01:11:45.790Z,0
2017-07-10T01:12:26.316Z,0
2017-07-10T01:13:06.846Z,0
2017-07-10T01:13:47.375Z,0
2017-07-10T01:14:27.894Z,0
2017-07-10T01:15:08.410Z,0
2017-07-10T01:15:48.960Z,0
2017-07-10T01:16:29.499Z,0
2017-07-10T01:17:10.043Z,0
2017-07-10T01:17:50.576Z,0
2017-07-10T01:18:31.128Z,0
2017-07-10T01:19:11.671Z,0
2017-07-10T01:19:52.221Z,0
2017-07-10T01:20:32.769Z,0
2017-07-10T01:21:13.303Z,0
2017-07-10T01:21:53.833Z,0
2017-07-10T01:22:34.371Z,0
2017-07-10T01:23:14.905Z,0
2017-07-10T01:23:55.437Z,0
2017-07-10T01:24:35.984Z,0
2017-07-10T01:25:16.537Z,0
2017-07-10T01:25:57.076Z,0
2017-07-10T01:26:37.607Z,0
2017-07-10T01:27:18.116Z,0
2017-07-10T01:27:58.653Z,0
2017-07-10T01:28:39.179Z,0
2017-07-10T01:29:19.720Z,0
2017-07-10T01:30:00.234Z,0
2017-07-10T01:30:40.774Z,0
2017-07-10T01:31:21.306Z,0
2017-07-10T01:32:01.842Z,0
2017-07-10T01:32:42.350Z,0
2017-07-10T01:33:22.861Z,0
2017-07-10T01:34:03.371Z,0
2017-07-10T01:34:43.853Z,0
2017-07-10T01:35:24.408Z,0
2017-07-10T01:36:04.929Z,0
2017-07-10T01:36:45.420Z,0
2017-07-10T01:37:25.930Z,0
2017-07-10T01:38:06.410Z,0
2017-07-10T01:38:46.950Z,0
2017-07-10T01:39:27.479Z,0
2017-07-10T01:40:07.989Z,0
2017-07-10T01:40:48.474Z,0
2017-07-10T01:41:28.994Z,0
2017-07-10T01:42:09.540Z,0
2017-07-10T01:42:50.070Z,0
2017-07-10T01:43:30.606Z,0
2017-07-10T01:44:11.168Z,0
2017-07-10T01:44:51.719Z,0
2017-07-10T01:45:32.268Z,0
2017-07-10T01:46:12.817Z,0
2017-07-10T01:46:53.346Z,0
2017-07-10T01:47:33.892Z,0
2017-07-10T01:48:14.413Z,0
2017-07-10T01:48:54.943Z,0
2017-07-10T01:49:35.496Z,0
2017-07-10T01:50:16.034Z,0
2017-07-10T01:50:56.561Z,0
2017-07-10T01:51:37.100Z,0
2017-07-10T01:52:17.617Z,0
2017-07-10T01:52:58.250Z,0
2017-07-10T01:53:38.784Z,0
2017-07-10T01:54:19.375Z,0
2017-07-10T01:54:59.952Z,0
2017-07-10T01:55:40.479Z,0
2017-07-10T01:56:20.978Z,0
2017-07-10T01:57:01.519Z,0
2017-07-10T01:57:42.017Z,0
2017-07-10T01:58:22.526Z,0
2017-07-10T01:59:03.104Z,0
2017-07-10T01:59:43.643Z,0
2017-07-10T02:00:24.177Z,0
2017-07-10T02:01:04.718Z,0
2017-07-10T02:01:45.264Z,0
2017-07-10T02:02:25.762Z,0
2017-07-10T02:03:06.277Z,0
2017-07-10T02:03:46.781Z,0
2017-07-10T02:04:27.306Z,0
2017-07-10T02:05:07.838Z,0
2017-07-10T02:05:48.360Z,0
2017-07-10T02:06:28.883Z,0
2017-07-10T02:07:09.414Z,0
2017-07-10T02:07:49.943Z,0
2017-07-10T02:08:30.489Z,0
2017-07-10T02:09:11.041Z,0
2017-07-10T02:09:51.559Z,0
2017-07-10T02:10:32.102Z,0
2017-07-10T02:11:12.645Z,0
2017-07-10T02:11:53.156Z,0
2017-07-10T02:12:33.700Z,0
2017-07-10T02:13:14.207Z,0
2017-07-10T02:13:54.726Z,0
2017-07-10T02:14:35.246Z,0
2017-07-10T02:15:15.780Z,0
2017-07-10T02:15:56.321Z,0
2017-07-10T02:16:36.845Z,0
2017-07-10T02:17:17.387Z,0
2017-07-10T02:17:57.929Z,0
2017-07-10T02:18:38.469Z,0
2017-07-10T02:19:19.008Z,0
2017-07-10T02:19:59.552Z,0
2017-07-10T02:20:40.093Z,0
2017-07-10T02:21:20.642Z,0
2017-07-10T02:22:01.187Z,0
2017-07-10T02:22:41.729Z,0
2017-07-10T02:23:22.993Z,0
2017-07-10T02:24:03.541Z,0
2017-07-10T02:24:44.064Z,0
2017-07-10T02:25:24.611Z,0
2017-07-10T02:26:05.154Z,0
2017-07-10T02:26:45.704Z,0
2017-07-10T02:27:26.232Z,0
2017-07-10T02:28:06.773Z,0
2017-07-10T02:28:47.305Z,0
2017-07-10T02:29:27.822Z,0
2017-07-10T02:30:08.387Z,0
2017-07-10T02:30:48.927Z,0
2017-07-10T02:31:29.459Z,0
2017-07-10T02:32:09.998Z,0
2017-07-10T02:32:50.536Z,0
2017-07-10T02:33:31.077Z,0
2017-07-10T02:34:11.619Z,0
2017-07-10T02:34:52.151Z,0
2017-07-10T02:35:32.692Z,0
2017-07-10T02:36:13.232Z,0
2017-07-10T02:36:53.772Z,0
2017-07-10T02:37:34.312Z,0
2017-07-10T02:38:14.856Z,0
2017-07-10T02:38:55.399Z,0
2017-07-10T02:39:35.942Z,0
2017-07-10T02:40:16.488Z,0
2017-07-10T02:40:57.030Z,0
2017-07-10T02:41:37.571Z,0
2017-07-10T02:42:18.114Z,0
2017-07-10T02:42:58.650Z,0
2017-07-10T02:43:39.192Z,0
2017-07-10T02:44:19.730Z,0
2017-07-10T02:45:00.257Z,0
2017-07-10T02:45:40.793Z,0
2017-07-10T02:46:21.338Z,0
2017-07-10T02:47:01.881Z,0
2017-07-10T02:47:42.413Z,0
2017-07-10T02:48:22.955Z,0
2017-07-10T02:49:03.495Z,0
2017-07-10T02:49:44.038Z,0
2017-07-10T02:50:24.574Z,0
2017-07-10T02:51:05.117Z,0
2017-07-10T02:51:45.617Z,0
2017-07-10T02:52:26.145Z,0
2017-07-10T02:53:06.686Z,0
2017-07-10T02:53:47.226Z,0
2017-07-10T02:54:27.767Z,0
2017-07-10T02:55:08.309Z,0
2017-07-10T02:55:48.849Z,0
2017-07-10T02:56:29.390Z,0
2017-07-10T02:57:09.926Z,0
2017-07-10T02:57:50.461Z,0
2017-07-10T02:58:30.983Z,0
2017-07-10T02:59:11.522Z,0
2017-07-10T02:59:52.061Z,0
2017-07-10T03:00:32.602Z,0
2017-07-10T03:01:13.146Z,4
2017-07-10T03:01:53.691Z,4
2017-07-10T03:02:34.228Z,4
2017-07-10T03:03:14.768Z,4
2017-07-10T03:03:55.306Z,4
2017-07-10T03:04:35.849Z,0
2017-07-10T03:05:16.389Z,4
2017-07-10T03:05:56.928Z,4
2017-07-10T03:06:37.466Z,4
2017-07-10T03:07:18.007Z,4
2017-07-10T03:07:58.546Z,4
2017-07-10T03:08:39.080Z,8
2017-07-10T03:09:19.624Z,8
2017-07-10T03:10:00.176Z,4
2017-07-10T03:10:40.694Z,8
2017-07-10T03:11:21.195Z,8
2017-07-10T03:12:01.695Z,8
2017-07-10T03:12:42.220Z,8
2017-07-10T03:13:22.770Z,8
2017-07-10T03:14:03.325Z,8
2017-07-10T03:14:43.839Z,8
2017-07-10T03:15:24.431Z,12
2017-07-10T03:16:04.876Z,12
2017-07-10T03:16:45.417Z,12
2017-07-10T03:17:25.954Z,16
2017-07-10T03:18:06.582Z,12
2017-07-10T03:18:47.095Z,16
2017-07-10T03:19:27.534Z,16
2017-07-10T03:20:08.091Z,16
2017-07-10T03:20:48.670Z,20
2017-07-10T03:21:29.172Z,20
2017-07-10T03:22:09.718Z,20
2017-07-10T03:22:50.239Z,24
2017-07-10T03:23:30.810Z,24
2017-07-10T03:24:11.323Z,24
2017-07-10T03:24:51.843Z,28
2017-07-10T03:25:32.369Z,28
2017-07-10T03:26:12.886Z,28
2017-07-10T03:26:53.415Z,28
2017-07-10T03:27:34.089Z,24
2017-07-10T03:28:14.610Z,24
2017-07-10T03:28:55.138Z,16
2017-07-10T03:29:35.664Z,20
2017-07-10T03:30:16.188Z,20
2017-07-10T03:30:56.653Z,20
2017-07-10T03:31:37.181Z,20
2017-07-10T03:32:17.673Z,24
2017-07-10T03:32:58.185Z,24
2017-07-10T03:33:38.792Z,24
2017-07-10T03:34:19.286Z,28
2017-07-10T03:34:59.776Z,24
2017-07-10T03:35:40.281Z,28
2017-07-10T03:36:20.770Z,28
2017-07-10T03:37:01.262Z,32
2017-07-10T03:37:41.750Z,32
2017-07-10T03:38:22.261Z,36
2017-07-10T03:39:02.754Z,36
2017-07-10T03:39:43.229Z,40
2017-07-10T03:40:23.758Z,40
2017-07-10T03:41:04.248Z,44
2017-07-10T03:41:44.775Z,44
2017-07-10T03:42:26.011Z,52
2017-07-10T03:43:06.541Z,56
2017-07-10T03:43:47.097Z,60
2017-07-10T03:44:27.626Z,64
2017-07-10T03:45:08.163Z,68
2017-07-10T03:45:48.702Z,72
2017-07-10T03:46:29.228Z,76
2017-07-10T03:47:09.741Z,80
2017-07-10T03:47:50.239Z,84
2017-07-10T03:48:30.751Z,84
2017-07-10T03:49:11.275Z,80
2017-07-10T03:49:51.857Z,76
2017-07-10T03:50:32.570Z,84
2017-07-10T03:51:13.833Z,88
2017-07-10T03:51:54.371Z,92
2017-07-10T03:52:34.932Z,92
2017-07-10T03:53:15.539Z,84
2017-07-10T03:53:56.055Z,80
2017-07-10T03:54:36.691Z,84
2017-07-10T03:55:17.169Z,88
2017-07-10T03:55:57.673Z,84
2017-07-10T03:56:38.221Z,100
2017-07-10T03:57:18.741Z,108
2017-07-10T03:57:59.239Z,112
2017-07-10T03:58:39.856Z,112
2017-07-10T03:59:20.351Z,108
2017-07-10T04:00:00.994Z,104
2017-07-10T04:00:41.627Z,100
2017-07-10T04:01:22.347Z,96
2017-07-10T04:02:03.054Z,120
2017-07-10T04:02:44.513Z,128
2017-07-10T04:03:25.895Z,132
2017-07-10T04:04:06.737Z,140
2017-07-10T04:04:47.547Z,140
2017-07-10T04:05:28.453Z,148
2017-07-10T04:06:09.428Z,148
2017-07-10T04:06:50.195Z,144
2017-07-10T04:07:31.043Z,152
2017-07-10T04:08:11.457Z,156
2017-07-10T04:08:52.080Z,156
2017-07-10T04:09:32.617Z,164
2017-07-10T04:10:13.202Z,172
2017-07-10T04:10:53.691Z,184
2017-07-10T04:11:34.350Z,188
2017-07-10T04:12:14.995Z,192
2017-07-10T04:12:55.537Z,212
2017-07-10T04:13:36.175Z,220
2017-07-10T04:14:16.668Z,232
2017-07-10T04:14:57.354Z,240
2017-07-10T04:15:37.967Z,240
2017-07-10T04:16:18.516Z,256
2017-07-10T04:16:59.213Z,244
2017-07-10T04:17:39.739Z,224
2017-07-10T04:18:20.277Z,240
2017-07-10T04:19:00.969Z,248
2017-07-10T04:19:41.562Z,252
2017-07-10T04:20:22.041Z,280
2017-07-10T04:21:02.681Z,296
2017-07-10T04:21:43.243Z,300
2017-07-10T04:22:23.757Z,312
2017-07-10T04:23:04.302Z,352
2017-07-10T04:23:44.883Z,408
2017-07-10T04:24:25.422Z,380
2017-07-10T04:25:06.026Z,404
2017-07-10T04:25:46.502Z,432
2017-07-10T04:26:27.122Z,404
2017-07-10T04:27:07.617Z,412
2017-07-10T04:27:48.364Z,404
2017-07-10T04:28:28.856Z,408
2017-07-10T04:29:09.377Z,392
2017-07-10T04:29:49.900Z,412
2017-07-10T04:30:30.435Z,452
2017-07-10T04:31:10.967Z,436
2017-07-10T04:31:51.493Z,420
2017-07-10T04:32:32.042Z,436
2017-07-10T04:33:12.584Z,408
2017-07-10T04:33:53.119Z,384
2017-07-10T04:34:33.642Z,364
2017-07-10T04:35:14.176Z,336
2017-07-10T04:35:54.717Z,340
2017-07-10T04:36:35.248Z,348
2017-07-10T04:37:15.783Z,404
2017-07-10T04:37:56.311Z,428
2017-07-10T04:38:36.857Z,444
2017-07-10T04:39:17.396Z,444
2017-07-10T04:39:57.900Z,428
2017-07-10T04:40:38.510Z,452
2017-07-10T04:41:19.020Z,480
2017-07-10T04:41:59.527Z,476
2017-07-10T04:42:40.071Z,484
2017-07-10T04:43:20.605Z,492
2017-07-10T04:44:01.118Z,504
2017-07-10T04:44:41.681Z,512
2017-07-10T04:45:22.190Z,524
2017-07-10T04:46:02.743Z,540
2017-07-10T04:46:43.235Z,556
2017-07-10T04:47:23.755Z,576
2017-07-10T04:48:05.335Z,608
2017-07-10T04:48:45.871Z,644
2017-07-10T04:49:26.383Z,676
2017-07-10T04:50:06.881Z,712
2017-07-10T04:50:47.388Z,752
2017-07-10T04:51:28.758Z,792
2017-07-10T04:52:08.537Z,800
2017-07-10T04:52:49.072Z,820
2017-07-10T04:53:29.591Z,844
2017-07-10T04:54:10.089Z,868
2017-07-10T04:54:50.612Z,872
2017-07-10T04:55:31.157Z,860
2017-07-10T04:56:11.671Z,844
2017-07-10T04:56:52.218Z,832
2017-07-10T04:57:32.714Z,832
2017-07-10T04:58:13.236Z,820
2017-07-10T04:58:53.898Z,804
2017-07-10T04:59:34.376Z,792
2017-07-10T05:00:14.911Z,788
2017-07-10T05:00:55.448Z,792
2017-07-10T05:01:36.003Z,788
2017-07-10T05:02:16.523Z,756
2017-07-10T05:02:57.039Z,728
2017-07-10T05:03:37.597Z,700
2017-07-10T05:04:18.131Z,676
2017-07-10T05:04:58.677Z,664
2017-07-10T05:05:39.202Z,644
2017-07-10T05:06:19.743Z,628
2017-07-10T05:07:00.285Z,624
2017-07-10T05:07:40.813Z,624
2017-07-10T05:08:21.362Z,620
2017-07-10T05:09:01.910Z,624
2017-07-10T05:09:42.442Z,632
2017-07-10T05:10:23.033Z,632
2017-07-10T05:11:03.563Z,624
2017-07-10T05:11:44.100Z,600
2017-07-10T05:12:24.640Z,600
2017-07-10T05:13:05.183Z,596
2017-07-10T05:13:45.722Z,592
2017-07-10T05:14:26.250Z,596
2017-07-10T05:15:06.800Z,596
2017-07-10T05:15:47.338Z,596
2017-07-10T05:16:27.873Z,592
2017-07-10T05:17:08.415Z,608
2017-07-10T05:17:48.974Z,644
2017-07-10T05:18:29.516Z,688
2017-07-10T05:19:10.056Z,732
2017-07-10T05:19:50.596Z,776
2017-07-10T05:20:31.131Z,828
2017-07-10T05:21:11.663Z,876
2017-07-10T05:21:52.197Z,916
2017-07-10T05:22:32.727Z,948
2017-07-10T05:23:13.267Z,964
2017-07-10T05:23:53.804Z,984
2017-07-10T05:24:34.348Z,1004
2017-07-10T05:25:14.894Z,1012
2017-07-10T05:25:55.422Z,1012
2017-07-10T05:26:35.962Z,1012
2017-07-10T05:27:16.471Z,988
2017-07-10T05:27:57.008Z,948
2017-07-10T05:28:37.602Z,888
2017-07-10T05:29:18.119Z,844
2017-07-10T05:29:58.653Z,812
2017-07-10T05:30:39.176Z,812
2017-07-10T05:31:19.717Z,844
2017-07-10T05:32:00.279Z,900
2017-07-10T05:32:40.844Z,972
2017-07-10T05:33:21.374Z,1040
2017-07-10T05:34:01.901Z,1128
2017-07-10T05:34:42.438Z,1200
2017-07-10T05:35:22.959Z,1264
2017-07-10T05:36:03.477Z,1300
2017-07-10T05:36:44.045Z,1336
2017-07-10T05:37:24.645Z,1368
2017-07-10T05:38:05.091Z,1416
2017-07-10T05:38:45.628Z,1456
2017-07-10T05:39:26.170Z,1520
2017-07-10T05:40:06.710Z,1572
2017-07-10T05:40:47.240Z,1608
2017-07-10T05:41:27.774Z,1636
2017-07-10T05:42:08.312Z,1636
2017-07-10T05:42:48.840Z,1624
2017-07-10T05:43:29.363Z,1596
2017-07-10T05:44:09.882Z,1572
2017-07-10T05:44:50.415Z,1572
2017-07-10T05:45:30.985Z,1572
2017-07-10T05:46:11.519Z,1588
2017-07-10T05:46:52.107Z,1600
2017-07-10T05:47:32.663Z,1588
2017-07-10T05:48:13.432Z,1520
2017-07-10T05:48:53.873Z,1404
2017-07-10T05:49:34.545Z,1380
2017-07-10T05:50:15.454Z,1468
2017-07-10T05:50:56.113Z,1592
2017-07-10T05:51:36.566Z,1712
2017-07-10T05:52:17.168Z,1836
2017-07-10T05:52:57.673Z,1912
2017-07-10T05:53:38.208Z,1952
2017-07-10T05:54:18.825Z,1948
2017-07-10T05:54:59.468Z,1872
2017-07-10T05:55:40.076Z,1764
2017-07-10T05:56:20.681Z,1660
2017-07-10T05:57:01.287Z,1612
2017-07-10T05:57:41.932Z,1616
2017-07-10T05:58:22.508Z,1648
2017-07-10T05:59:03.044Z,1684
2017-07-10T05:59:43.630Z,1720
2017-07-10T06:00:24.223Z,1784
2017-07-10T06:01:04.826Z,1876
2017-07-10T06:01:45.347Z,1996
2017-07-10T06:02:25.872Z,2120
2017-07-10T06:03:06.436Z,2224
2017-07-10T06:03:46.948Z,2308
2017-07-10T06:04:27.552Z,2356
2017-07-10T06:05:08.031Z,2384
2017-07-10T06:05:48.568Z,2360
2017-07-10T06:06:29.129Z,2328
2017-07-10T06:07:09.662Z,2320
2017-07-10T06:07:50.201Z,2356
2017-07-10T06:08:30.778Z,2428
2017-07-10T06:09:11.326Z,2480
2017-07-10T06:09:51.854Z,2512
2017-07-10T06:10:32.448Z,2476
2017-07-10T06:11:12.972Z,2520
2017-07-10T06:11:53.513Z,2532
2017-07-10T06:12:34.056Z,2472
2017-07-10T06:13:14.667Z,2312
2017-07-10T06:13:55.280Z,2108
2017-07-10T06:14:35.787Z,1996
2017-07-10T06:15:16.312Z,1936
2017-07-10T06:15:56.892Z,1892
2017-07-10T06:16:37.447Z,1840
2017-07-10T06:17:18.010Z,1840
2017-07-10T06:17:58.496Z,1880
2017-07-10T06:18:39.052Z,1848
2017-07-10T06:19:19.549Z,1824
2017-07-10T06:20:00.133Z,1796
2017-07-10T06:20:40.654Z,1744
2017-07-10T06:21:21.244Z,1736
2017-07-10T06:22:01.809Z,1768
2017-07-10T06:22:42.368Z,1824
2017-07-10T06:23:22.967Z,1864
2017-07-10T06:24:03.560Z,1876
2017-07-10T06:24:44.145Z,1864
2017-07-10T06:25:24.658Z,1860
2017-07-10T06:26:05.152Z,1864
2017-07-10T06:26:45.666Z,1848
2017-07-10T06:27:26.200Z,1812
2017-07-10T06:28:06.763Z,1792
2017-07-10T06:28:47.398Z,1784
2017-07-10T06:29:27.844Z,1788
2017-07-10T06:30:08.433Z,1796
2017-07-10T06:30:48.956Z,1812
2017-07-10T06:31:29.576Z,1832
2017-07-10T06:32:10.106Z,1848
2017-07-10T06:32:50.650Z,1824
2017-07-10T06:33:31.258Z,1832
2017-07-10T06:34:11.841Z,1880
2017-07-10T06:34:52.387Z,1952
2017-07-10T06:35:32.995Z,2016
2017-07-10T06:36:13.524Z,2072
2017-07-10T06:36:54.138Z,2104
2017-07-10T06:37:34.681Z,2120
2017-07-10T06:38:15.331Z,2128
2017-07-10T06:38:55.859Z,2132
2017-07-10T06:39:36.482Z,2148
2017-07-10T06:40:17.142Z,2184
2017-07-10T06:40:57.653Z,2224
2017-07-10T06:41:38.178Z,2280
2017-07-10T06:42:18.774Z,2388
2017-07-10T06:42:59.312Z,2540
2017-07-10T06:43:39.886Z,2696
2017-07-10T06:44:20.463Z,2824
2017-07-10T06:45:01.031Z,3004
2017-07-10T06:45:41.656Z,3284
2017-07-10T06:46:22.161Z,3580
2017-07-10T06:47:02.721Z,3712
2017-07-10T06:47:43.326Z,3768
2017-07-10T06:48:23.864Z,3768
2017-07-10T06:49:04.465Z,3752
2017-07-10T06:49:45.032Z,3696
2017-07-10T06:50:25.622Z,3616
2017-07-10T06:51:06.177Z,3520
2017-07-10T06:51:46.938Z,3396
2017-07-10T06:52:27.585Z,3264
2017-07-10T06:53:08.376Z,3060
2017-07-10T06:53:49.057Z,2880
2017-07-10T06:54:29.686Z,2836
2017-07-10T06:55:10.067Z,2812
2017-07-10T06:55:50.607Z,2832
2017-07-10T06:56:31.288Z,2908
2017-07-10T06:57:11.831Z,3032
2017-07-10T06:57:52.384Z,3104
2017-07-10T06:58:32.913Z,3152
2017-07-10T06:59:13.477Z,3172
2017-07-10T06:59:54.018Z,3144
2017-07-10T07:00:34.537Z,3128
2017-07-10T07:01:15.076Z,3084
2017-07-10T07:01:55.601Z,3044
2017-07-10T07:02:36.075Z,3040
2017-07-10T07:03:16.612Z,3080
2017-07-10T07:03:57.154Z,3112
2017-07-10T07:04:37.638Z,3104
2017-07-10T07:05:18.134Z,3000
2017-07-10T07:05:58.641Z,2916
2017-07-10T07:06:39.194Z,2968
2017-07-10T07:07:19.709Z,3072
2017-07-10T07:08:00.208Z,3068
2017-07-10T07:08:40.736Z,2996
2017-07-10T07:09:21.217Z,2920
2017-07-10T07:10:01.741Z,2780
2017-07-10T07:10:42.251Z,2600
2017-07-10T07:11:22.803Z,2396
2017-07-10T07:12:03.354Z,2280
2017-07-10T07:12:43.789Z,2232
2017-07-10T07:13:24.374Z,2124
2017-07-10T07:14:04.896Z,1980
2017-07-10T07:14:45.352Z,1896
2017-07-10T07:15:25.900Z,1928
2017-07-10T07:16:06.419Z,2088
2017-07-10T07:16:46.965Z,2396
2017-07-10T07:17:27.501Z,2716
2017-07-10T07:18:08.041Z,2972
2017-07-10T07:18:48.582Z,3164
2017-07-10T07:19:29.107Z,3296
2017-07-10T07:20:09.647Z,3392
2017-07-10T07:20:50.189Z,3516
2017-07-10T07:21:30.743Z,3720
2017-07-10T07:22:11.281Z,3940
2017-07-10T07:22:51.797Z,4148
2017-07-10T07:23:32.342Z,4300
2017-07-10T07:24:12.915Z,4340
2017-07-10T07:24:53.445Z,4308
2017-07-10T07:25:33.988Z,4276
2017-07-10T07:26:14.532Z,4232
2017-07-10T07:26:55.092Z,4180
2017-07-10T07:27:35.641Z,4124
2017-07-10T07:28:16.184Z,4036
2017-07-10T07:28:56.793Z,3972
2017-07-10T07:29:37.341Z,3956
2017-07-10T07:30:17.857Z,3900
2017-07-10T07:30:58.389Z,3816
2017-07-10T07:31:38.902Z,3740
2017-07-10T07:32:19.445Z,3788
2017-07-10T07:32:59.943Z,3964
2017-07-10T07:33:40.462Z,4236
2017-07-10T07:34:21.009Z,4504
2017-07-10T07:35:01.480Z,4764
2017-07-10T07:35:42.015Z,4972
2017-07-10T07:36:22.484Z,5156
2017-07-10T07:37:03.057Z,5368
2017-07-10T07:37:43.514Z,5544
2017-07-10T07:38:24.038Z,5640
2017-07-10T07:39:04.514Z,5756
2017-07-10T07:39:45.013Z,5916
2017-07-10T07:40:25.541Z,6116
2017-07-10T07:41:06.081Z,6324
2017-07-10T07:41:46.638Z,6168
2017-07-10T07:42:27.160Z,5888
2017-07-10T07:43:07.697Z,5784
2017-07-10T07:43:48.272Z,5876
2017-07-10T07:44:28.819Z,5924
2017-07-10T07:45:09.363Z,5944
2017-07-10T07:45:49.905Z,6004
2017-07-10T07:46:30.454Z,5972
2017-07-10T07:47:11.038Z,5916
2017-07-10T07:47:51.569Z,5804
2017-07-10T07:48:32.107Z,5800
2017-07-10T07:49:12.652Z,5916
2017-07-10T07:49:53.211Z,6196
2017-07-10T07:50:33.718Z,6656
2017-07-10T07:51:14.233Z,7184
2017-07-10T07:51:54.772Z,7852
2017-07-10T07:52:35.296Z,8560
2017-07-10T07:53:15.818Z,9000
2017-07-10T07:53:56.348Z,9120
2017-07-10T07:54:36.878Z,9260
2017-07-10T07:55:17.438Z,9684
2017-07-10T07:55:57.970Z,9976
2017-07-10T07:56:38.471Z,10044
2017-07-10T07:57:18.961Z,10152
2017-07-10T07:57:59.495Z,10308
2017-07-10T07:58:40.034Z,10904
2017-07-10T07:59:20.514Z,11496
2017-07-10T08:00:01.050Z,12292
2017-07-10T08:00:41.577Z,12980
2017-07-10T08:01:22.057Z,12840
2017-07-10T08:02:02.570Z,12040
2017-07-10T08:02:43.188Z,11944
2017-07-10T08:03:23.690Z,10220
2017-07-10T08:04:04.191Z,9292
2017-07-10T08:04:44.722Z,8708
2017-07-10T08:05:25.232Z,8596
2017-07-10T08:06:05.742Z,8616
2017-07-10T08:06:46.268Z,8656
2017-07-10T08:07:26.809Z,8852
2017-07-10T08:08:07.362Z,8912
2017-07-10T08:08:47.880Z,8996
2017-07-10T08:09:28.471Z,9144
2017-07-10T08:10:09.016Z,9164
2017-07-10T08:10:49.561Z,8956
2017-07-10T08:11:30.122Z,8700
2017-07-10T08:12:10.667Z,8548
2017-07-10T08:12:51.228Z,8600
2017-07-10T08:13:31.772Z,8800
2017-07-10T08:14:12.316Z,9136
2017-07-10T08:14:52.886Z,9848
2017-07-10T08:15:33.404Z,10576
2017-07-10T08:16:13.988Z,11408
2017-07-10T08:16:54.591Z,15104
2017-07-10T08:17:35.139Z,12392
2017-07-10T08:18:15.693Z,12676
2017-07-10T08:18:56.214Z,13816
2017-07-10T08:19:36.796Z,22400
2017-07-10T08:20:17.341Z,39168
2017-07-10T08:20:57.871Z,58976
2017-07-10T08:21:38.400Z,23776
2017-07-10T08:22:18.942Z,45184
2017-07-10T08:22:59.474Z,78336
2017-07-10T08:23:40.003Z,29088
2017-07-10T08:24:20.567Z,24416
2017-07-10T08:25:01.099Z,32992
2017-07-10T08:25:41.655Z,31360
2017-07-10T08:26:22.200Z,16304
2017-07-10T08:27:02.720Z,15244
2017-07-10T08:27:43.258Z,15476
2017-07-10T08:28:23.805Z,18976
2017-07-10T08:29:04.335Z,20320
2017-07-10T08:29:44.899Z,20192
2017-07-10T08:30:25.442Z,21728
2017-07-10T08:31:05.974Z,20832
2017-07-10T08:31:46.540Z,19264
2017-07-10T08:32:27.076Z,18816
2017-07-10T08:33:07.613Z,18464
2017-07-10T08:33:48.136Z,19584
2017-07-10T08:34:28.682Z,15720
2017-07-10T08:35:09.215Z,13492
2017-07-10T08:35:49.740Z,13140
2017-07-10T08:36:30.291Z,13560
2017-07-10T08:37:10.841Z,13156
2017-07-10T08:37:51.360Z,12304
2017-07-10T08:38:31.866Z,11732
2017-07-10T08:39:12.371Z,11052
2017-07-10T08:39:52.894Z,10548
2017-07-10T08:40:33.434Z,10176
2017-07-10T08:41:13.964Z,9704
2017-07-10T08:41:54.506Z,9192
2017-07-10T08:42:35.042Z,8412
2017-07-10T08:43:15.563Z,7868
2017-07-10T08:43:56.142Z,7568
2017-07-10T08:44:36.668Z,7172
2017-07-10T08:45:17.202Z,6672
2017-07-10T08:45:57.744Z,6292
2017-07-10T08:46:38.259Z,5896
2017-07-10T08:47:18.802Z,5588
2017-07-10T08:47:59.313Z,5492
2017-07-10T08:48:39.850Z,5392
2017-07-10T08:49:20.329Z,5304
2017-07-10T08:50:00.976Z,5256
2017-07-10T08:50:41.496Z,5152
2017-07-10T08:51:21.997Z,5024
2017-07-10T08:52:02.518Z,4888
2017-07-10T08:52:43.045Z,4792
2017-07-10T08:53:23.569Z,4716
2017-07-10T08:54:04.110Z,4624
2017-07-10T08:54:44.638Z,4568
2017-07-10T08:55:25.133Z,4516
2017-07-10T08:56:05.667Z,4520
2017-07-10T08:56:46.204Z,4552
2017-07-10T08:57:26.747Z,4608
2017-07-10T08:58:07.284Z,4632
2017-07-10T08:58:47.812Z,4680
2017-07-10T08:59:28.338Z,4796
2017-07-10T09:00:08.854Z,4952
2017-07-10T09:00:49.371Z,5160
2017-07-10T09:01:29.866Z,5380
2017-07-10T09:02:10.383Z,5624
2017-07-10T09:02:50.884Z,5848
2017-07-10T09:03:31.474Z,6052
2017-07-10T09:04:11.995Z,6236
2017-07-10T09:04:52.543Z,6368
2017-07-10T09:05:33.084Z,6452
2017-07-10T09:06:13.609Z,6516
2017-07-10T09:06:54.131Z,6540
2017-07-10T09:07:34.658Z,6608
2017-07-10T09:08:15.165Z,6848
2017-07-10T09:08:55.687Z,7112
2017-07-10T09:09:36.167Z,7196
2017-07-10T09:10:16.689Z,7252
2017-07-10T09:10:57.214Z,7372
2017-07-10T09:11:37.720Z,7556
2017-07-10T09:12:18.188Z,7880
2017-07-10T09:12:58.706Z,8252
2017-07-10T09:13:39.247Z,8572
2017-07-10T09:14:19.746Z,8784
2017-07-10T09:15:00.196Z,8840
2017-07-10T09:15:40.711Z,8752
2017-07-10T09:16:21.228Z,8652
2017-07-10T09:17:01.765Z,8668
2017-07-10T09:17:42.284Z,8648
2017-07-10T09:18:22.845Z,8716
2017-07-10T09:19:03.410Z,8824
2017-07-10T09:19:43.962Z,8856
2017-07-10T09:20:24.536Z,8728
2017-07-10T09:21:05.078Z,8420
2017-07-10T09:21:45.610Z,7996
2017-07-10T09:22:26.124Z,7624
2017-07-10T09:23:06.619Z,7624
2017-07-10T09:23:47.211Z,7912
2017-07-10T09:24:27.754Z,8608